Time;durP1;ratioP1;P1;durP2;ratioP2;P2;SDS_P1;SDS_P2;PMS_P1;PMS_P2;Temp;Humidity;BMP_temperature;BMP_pressure;BME280_temperature;BME280_humidity;BME280_pressure;Samples;Min_cycle;Max_cycle;Signal;HPM_P1;HPM_P2
2022/02/02 00:00:33;;;;;;;1.40;0.50;;;5.00;87.80;;;;;;5109922;28;20314;-70
2022/02/02 00:03:06;;;;;;;1.65;0.65;;;5.00;87.90;;;;;;5130016;28;20195;-66
2022/02/02 00:05:38;;;;;;;1.50;0.60;;;5.00;88.20;;;;;;5129275;27;20280;-66
2022/02/02 00:08:09;;;;;;;1.90;0.80;;;4.90;88.40;;;;;;5129860;28;20274;-66
2022/02/02 00:11:06;;;;;;;1.77;0.70;;;4.90;88.30;;;;;;5129691;28;20646;-67
2022/02/02 00:13:41;;;;;;;1.52;0.70;;;4.90;88.40;;;;;;5129843;28;20215;-66
2022/02/02 00:16:17;;;;;;;1.73;0.52;;;5.00;88.10;;;;;;5129585;27;20538;-66
2022/02/02 00:18:51;;;;;;;2.92;0.90;;;5.00;87.80;;;;;;5129782;28;20662;-66
2022/02/02 00:21:24;;;;;;;1.83;0.80;;;5.00;88.20;;;;;;5129467;27;20238;-66
2022/02/02 00:23:56;;;;;;;3.35;0.70;;;5.00;89.00;;;;;;5129712;27;20196;-66
2022/02/02 00:26:28;;;;;;;2.97;0.80;;;5.10;88.20;;;;;;5128974;27;20267;-66
2022/02/02 00:29:02;;;;;;;2.38;1.10;;;5.10;87.70;;;;;;5129554;27;20618;-66
2022/02/02 00:31:39;;;;;;;1.65;0.70;;;5.10;87.20;;;;;;5129181;28;20179;-66
2022/02/02 00:34:10;;;;;;;1.70;0.70;;;5.10;86.80;;;;;;5128924;27;20184;-66
2022/02/02 00:36:45;;;;;;;1.88;0.85;;;5.20;86.70;;;;;;5129407;27;20203;-66
2022/02/02 00:39:12;;;;;;;2.05;0.90;;;5.20;86.30;;;;;;5128408;28;20604;-67
2022/02/02 00:41:40;;;;;;;1.95;0.80;;;5.20;86.20;;;;;;5128779;28;20228;-67
2022/02/02 00:44:09;;;;;;;1.48;0.60;;;5.30;86.00;;;;;;5129093;28;20192;-66
2022/02/02 00:46:36;;;;;;;1.98;0.77;;;5.30;85.50;;;;;;5128613;28;20658;-67
2022/02/02 00:49:05;;;;;;;1.85;0.68;;;5.30;85.40;;;;;;5124889;27;20215;-66
2022/02/02 00:51:40;;;;;;;2.20;0.60;;;5.30;85.30;;;;;;5124023;27;20197;-66
2022/02/02 00:54:08;;;;;;;1.50;0.60;;;5.30;85.30;;;;;;5113178;28;20264;-66
2022/02/02 00:56:36;;;;;;;1.52;0.57;;;5.30;85.60;;;;;;5113842;28;20216;-66
2022/02/02 00:59:03;;;;;;;1.40;0.55;;;5.30;85.90;;;;;;5113191;28;20196;-66
2022/02/02 01:01:32;;;;;;;1.30;0.40;;;5.30;86.10;;;;;;5112797;28;20227;-67
2022/02/02 01:03:59;;;;;;;1.40;0.65;;;5.30;86.20;;;;;;5112958;28;20249;-67
2022/02/02 01:06:29;;;;;;;1.30;0.50;;;5.30;86.10;;;;;;5113654;28;20204;-66
2022/02/02 01:11:53;;;;;;;1.65;0.60;;;5.20;86.00;;;;;;5112073;28;20196;-68
2022/02/02 01:15:19;;;;;;;1.30;0.50;;;5.20;86.30;;;;;;5113443;28;20194;-66
2022/02/02 01:20:35;;;;;;;1.30;0.50;;;5.10;87.70;;;;;;5112969;28;20192;-67
2022/02/02 01:28:33;;;;;;;1.70;0.63;;;5.00;88.30;;;;;;5112233;28;20211;-67
2022/02/02 01:31:01;;;;;;;1.30;0.50;;;5.00;88.10;;;;;;5108382;28;20297;-66
2022/02/02 01:33:30;;;;;;;1.30;0.50;;;4.90;88.10;;;;;;5112870;28;20196;-66
2022/02/02 01:35:59;;;;;;;1.30;0.50;;;4.90;87.90;;;;;;5112686;28;20311;-69
2022/02/02 01:38:29;;;;;;;1.40;0.60;;;4.90;87.70;;;;;;5111941;28;20273;-66
2022/02/02 01:41:01;;;;;;;1.40;0.50;;;4.90;87.70;;;;;;5111989;28;20318;-66
2022/02/02 01:43:32;;;;;;;1.40;0.50;;;4.90;87.90;;;;;;5112989;28;20234;-67
2022/02/02 01:46:03;;;;;;;1.45;0.47;;;4.90;88.50;;;;;;5114256;28;20196;-66
2022/02/02 01:48:37;;;;;;;4.90;0.60;;;4.90;88.40;;;;;;5112804;28;20187;-66
2022/02/02 01:51:27;;;;;;;1.38;0.60;;;4.90;88.60;;;;;;5113926;28;20554;-67
2022/02/02 01:54:00;;;;;;;1.30;0.50;;;4.90;89.00;;;;;;5114274;28;20705;-66
2022/02/02 01:56:27;;;;;;;1.60;0.60;;;4.80;89.50;;;;;;5113854;28;20192;-67
2022/02/02 02:01:38;;;;;;;1.40;0.60;;;4.90;89.70;;;;;;5113410;28;20300;-66
2022/02/02 02:04:06;;;;;;;1.67;0.60;;;4.90;89.50;;;;;;5112948;28;20188;-66
2022/02/02 02:06:34;;;;;;;1.40;0.60;;;4.90;89.50;;;;;;5113867;28;20198;-68
2022/02/02 02:09:01;;;;;;;1.42;0.52;;;4.90;89.40;;;;;;5114057;28;20199;-67
2022/02/02 02:11:28;;;;;;;1.63;0.70;;;5.00;89.50;;;;;;5113309;28;20185;-67
2022/02/02 02:16:48;;;;;;;3.45;0.95;;;5.00;89.40;;;;;;5076987;28;20184;-68
2022/02/02 02:19:20;;;;;;;2.35;0.60;;;5.00;89.20;;;;;;5113955;28;20229;-68
2022/02/02 02:21:49;;;;;;;2.50;0.95;;;5.00;89.10;;;;;;5114152;28;20223;-67
2022/02/02 02:24:18;;;;;;;2.60;0.80;;;5.00;89.00;;;;;;5113761;28;20531;-67
2022/02/02 02:26:45;;;;;;;1.80;1.00;;;5.10;88.80;;;;;;5113429;28;20192;-67
2022/02/02 02:29:32;;;;;;;1.60;0.60;;;5.10;88.80;;;;;;5113617;28;20188;-67
2022/02/02 02:32:14;;;;;;;1.60;0.77;;;5.20;88.50;;;;;;5112991;28;20188;-66
2022/02/02 02:35:00;;;;;;;1.40;0.60;;;5.20;88.50;;;;;;5113340;28;20220;-68
2022/02/02 02:40:26;;;;;;;1.70;0.70;;;5.20;88.30;;;;;;5081903;28;20228;-66
2022/02/02 02:56:47;;;;;;;1.40;0.60;;;5.30;88.40;;;;;;5113310;28;20562;-67
2022/02/02 02:59:19;;;;;;;1.40;0.60;;;5.30;88.30;;;;;;5112568;28;20318;-67
2022/02/02 03:32:25;;;;;;;3.10;1.15;;;5.60;87.30;;;;;;5111886;28;20310;-67
2022/02/02 03:35:10;;;;;;;1.60;0.80;;;5.60;86.90;;;;;;5103351;28;20187;-67
2022/02/02 03:51:33;;;;;;;1.50;0.63;;;5.70;86.40;;;;;;5112188;28;20668;-66
2022/02/02 03:57:08;;;;;;;2.03;0.80;;;5.70;86.20;;;;;;5112049;28;20669;-67
2022/02/02 03:59:43;;;;;;;1.58;0.70;;;5.70;86.50;;;;;;5112384;28;20491;-66
2022/02/02 04:02:35;;;;;;;1.60;0.73;;;5.70;86.90;;;;;;5112298;28;20212;-66
2022/02/02 04:05:25;;;;;;;2.50;1.10;;;5.70;86.90;;;;;;5112564;28;20188;-66
2022/02/02 04:07:55;;;;;;;2.20;0.98;;;5.70;86.90;;;;;;5112059;28;20212;-70
2022/02/02 04:10:22;;;;;;;2.67;1.20;;;5.70;86.80;;;;;;5112608;28;20245;-66
2022/02/02 04:12:55;;;;;;;4.88;1.20;;;5.60;86.90;;;;;;5112413;28;20188;-66
2022/02/02 04:16:52;;;;;;;2.03;0.88;;;5.60;86.80;;;;;;5112477;28;20271;-66
2022/02/02 04:38:06;;;;;;;3.53;1.70;;;5.70;88.10;;;;;;5116181;28;20203;-66
2022/02/02 04:51:46;;;;;;;3.78;1.63;;;5.70;87.80;;;;;;5096829;28;20184;-67
2022/02/02 04:54:27;;;;;;;7.20;2.95;;;5.70;87.80;;;;;;5116026;28;20266;-66
2022/02/02 04:59:43;;;;;;;3.13;2.15;;;5.80;87.90;;;;;;5113539;28;20214;-66
2022/02/02 05:08:03;;;;;;;3.03;1.85;;;5.80;87.70;;;;;;5052931;28;20229;-66
2022/02/02 05:10:39;;;;;;;8.07;2.20;;;5.90;87.90;;;;;;5091441;28;20183;-67
2022/02/02 05:16:04;;;;;;;8.32;2.38;;;5.90;87.50;;;;;;5114578;28;20642;-67
2022/02/02 05:44:05;;;;;;;4.05;2.08;;;6.10;86.70;;;;;;5115105;27;20192;-69
2022/02/02 05:49:35;;;;;;;8.77;2.72;;;6.20;86.20;;;;;;5114177;28;20563;-69
2022/02/02 05:52:02;;;;;;;10.25;2.00;;;6.10;85.80;;;;;;5115058;28;20185;-66
2022/02/02 05:54:29;;;;;;;7.43;1.95;;;6.20;85.60;;;;;;5115482;28;20253;-67
2022/02/02 05:56:59;;;;;;;4.30;2.28;;;6.20;85.30;;;;;;5115220;28;20535;-66
2022/02/02 05:59:29;;;;;;;3.85;2.30;;;6.20;85.00;;;;;;5114653;28;20218;-67
2022/02/02 06:01:58;;;;;;;6.82;2.30;;;6.20;84.50;;;;;;5113926;28;20265;-67
2022/02/02 06:04:27;;;;;;;10.05;1.90;;;6.20;84.50;;;;;;5114040;28;20261;-66
2022/02/02 06:06:55;;;;;;;3.85;1.35;;;6.10;84.40;;;;;;5114158;28;20289;-70
2022/02/02 06:09:25;;;;;;;4.13;1.70;;;6.10;84.30;;;;;;5114572;28;20227;-69
2022/02/02 06:11:53;;;;;;;5.88;1.45;;;6.00;84.20;;;;;;5113569;28;20188;-69
2022/02/02 06:14:27;;;;;;;3.83;1.88;;;6.00;84.20;;;;;;5114703;28;20622;-69
2022/02/02 06:16:57;;;;;;;5.53;2.00;;;6.00;83.80;;;;;;5113880;28;20229;-69
2022/02/02 06:19:25;;;;;;;4.70;1.60;;;6.00;83.80;;;;;;5114202;28;20195;-69
2022/02/02 06:21:57;;;;;;;4.10;1.85;;;6.00;83.60;;;;;;5113710;28;20215;-69
2022/02/02 06:24:32;;;;;;;2.78;1.80;;;6.00;83.70;;;;;;5113613;28;20196;-67
2022/02/02 06:27:09;;;;;;;3.63;1.50;;;6.00;83.50;;;;;;5112987;28;20216;-66
2022/02/02 06:29:43;;;;;;;3.33;1.60;;;6.00;83.30;;;;;;5113320;28;20272;-66
2022/02/02 06:32:15;;;;;;;3.28;1.30;;;6.00;83.40;;;;;;5113535;28;20204;-66
2022/02/02 06:34:45;;;;;;;4.88;1.45;;;6.00;83.30;;;;;;5109865;27;20273;-66
2022/02/02 06:37:13;;;;;;;4.45;1.60;;;6.00;83.50;;;;;;5111075;28;20188;-67
2022/02/02 06:39:41;;;;;;;3.15;1.73;;;5.90;83.40;;;;;;5110123;28;20266;-67
2022/02/02 06:42:10;;;;;;;1.90;1.10;;;5.90;83.30;;;;;;5110581;28;21007;-67
2022/02/02 06:44:41;;;;;;;4.22;1.30;;;5.90;83.40;;;;;;5111069;28;20193;-66
2022/02/02 06:47:09;;;;;;;2.35;1.33;;;5.90;83.30;;;;;;5108610;28;20189;-66
2022/02/02 06:49:37;;;;;;;2.85;1.15;;;6.00;83.70;;;;;;5111790;28;20210;-67
2022/02/02 06:52:16;;;;;;;4.82;2.92;;;6.00;83.50;;;;;;5112350;28;20271;-66
2022/02/02 06:54:54;;;;;;;6.45;1.77;;;6.10;83.50;;;;;;5108973;28;20180;-66
2022/02/02 06:57:37;;;;;;;4.30;1.60;;;6.10;83.50;;;;;;5111415;28;20212;-67
2022/02/02 07:00:15;;;;;;;2.70;1.55;;;6.10;83.20;;;;;;5112260;28;20188;-67
2022/02/02 07:02:48;;;;;;;2.72;2.15;;;6.10;82.90;;;;;;5111961;28;20243;-67
2022/02/02 07:05:30;;;;;;;6.72;1.70;;;6.10;83.00;;;;;;5112207;28;20192;-67
2022/02/02 07:08:27;;;;;;;4.28;1.67;;;6.10;83.10;;;;;;5110407;28;20295;-66
2022/02/02 07:11:10;;;;;;;4.00;1.80;;;6.10;83.10;;;;;;5108941;28;20196;-66
2022/02/02 07:13:49;;;;;;;3.55;1.30;;;6.20;83.10;;;;;;5108078;28;20196;-67
2022/02/02 07:16:30;;;;;;;6.80;2.40;;;6.20;82.60;;;;;;5111409;28;20286;-67
2022/02/02 07:19:11;;;;;;;6.18;1.88;;;6.20;82.80;;;;;;5111695;28;20200;-66
2022/02/02 07:21:58;;;;;;;5.78;1.65;;;6.20;82.60;;;;;;5111188;28;20181;-66
2022/02/02 07:27:31;;;;;;;7.57;2.33;;;6.30;82.70;;;;;;5075544;28;20203;-66
2022/02/02 07:30:09;;;;;;;3.13;1.85;;;6.30;82.70;;;;;;5111625;28;20188;-66
2022/02/02 07:32:43;;;;;;;6.82;1.88;;;6.30;82.80;;;;;;5111177;28;20638;-67
2022/02/02 07:35:15;;;;;;;14.73;2.15;;;6.30;82.60;;;;;;5111340;28;20238;-67
2022/02/02 07:37:46;;;;;;;5.70;2.13;;;6.30;82.50;;;;;;5110381;28;20211;-67
2022/02/02 07:40:16;;;;;;;8.13;2.75;;;6.30;82.70;;;;;;5106624;28;20216;-68
2022/02/02 07:42:47;;;;;;;9.65;2.15;;;6.30;82.30;;;;;;5109988;28;20678;-67
2022/02/02 07:45:17;;;;;;;6.57;2.83;;;6.30;82.30;;;;;;5111545;28;20585;-67
2022/02/02 07:47:48;;;;;;;6.18;1.85;;;6.30;81.60;;;;;;5111002;28;20250;-68
2022/02/02 07:50:16;;;;;;;8.10;3.17;;;6.30;81.40;;;;;;5111157;28;20184;-66
2022/02/02 07:52:45;;;;;;;4.47;2.05;;;6.40;81.50;;;;;;5110598;28;20190;-67
2022/02/02 07:55:14;;;;;;;10.38;2.95;;;6.40;81.10;;;;;;5110458;28;20689;-66
2022/02/02 07:57:44;;;;;;;9.27;2.70;;;6.30;81.00;;;;;;5111836;28;20181;-66
2022/02/02 08:00:18;;;;;;;11.30;3.65;;;6.30;80.90;;;;;;5112409;28;20212;-67
2022/02/02 08:02:59;;;;;;;5.47;2.08;;;6.40;81.10;;;;;;5114402;28;20265;-67
2022/02/02 08:05:28;;;;;;;6.07;2.63;;;6.40;80.90;;;;;;5095998;28;20275;-69
2022/02/02 08:08:06;;;;;;;4.95;2.00;;;6.40;80.30;;;;;;5096752;28;20204;-69
2022/02/02 08:10:36;;;;;;;8.68;2.95;;;6.40;80.40;;;;;;5104347;28;20184;-66
2022/02/02 08:13:10;;;;;;;4.20;2.10;;;6.50;80.30;;;;;;5116856;28;20253;-69
2022/02/02 08:15:37;;;;;;;10.05;3.03;;;6.50;80.00;;;;;;5116129;28;20184;-66
2022/02/02 08:18:06;;;;;;;6.03;2.45;;;6.50;80.10;;;;;;5112790;28;20559;-68
2022/02/02 08:20:33;;;;;;;26.20;11.80;;;6.50;80.00;;;;;;5115247;28;20188;-69
2022/02/02 08:23:00;;;;;;;11.15;5.07;;;6.50;79.80;;;;;;5115667;28;20255;-69
2022/02/02 08:25:29;;;;;;;8.25;4.80;;;6.50;79.10;;;;;;5114615;28;20261;-69
2022/02/02 08:27:58;;;;;;;9.25;4.75;;;6.50;78.90;;;;;;5115258;28;20242;-69
2022/02/02 08:30:28;;;;;;;18.65;11.30;;;6.60;79.00;;;;;;5114942;28;20195;-68
2022/02/02 08:32:57;;;;;;;14.55;10.32;;;6.60;79.10;;;;;;5114615;28;20191;-70
2022/02/02 08:35:27;;;;;;;13.98;7.65;;;6.60;79.00;;;;;;5111213;28;20188;-67
2022/02/02 08:38:02;;;;;;;12.73;4.88;;;6.60;78.80;;;;;;5114562;28;20191;-67
2022/02/02 08:40:34;;;;;;;10.90;3.53;;;6.70;78.50;;;;;;5113989;28;20215;-67
2022/02/02 08:43:07;;;;;;;13.93;8.10;;;6.70;78.20;;;;;;5114566;28;20266;-66
2022/02/02 08:45:37;;;;;;;38.53;24.33;;;6.70;78.10;;;;;;5113991;28;20207;-67
2022/02/02 08:48:08;;;;;;;8.32;5.03;;;6.70;77.90;;;;;;5114422;28;20650;-68
2022/02/02 08:50:44;;;;;;;9.73;3.15;;;6.70;77.50;;;;;;5114690;28;20196;-66
2022/02/02 08:53:28;;;;;;;11.20;2.38;;;6.70;77.40;;;;;;5114937;28;20283;-66
2022/02/02 08:56:13;;;;;;;6.22;2.30;;;6.70;77.10;;;;;;5113263;28;20545;-67
2022/02/02 08:58:43;;;;;;;5.57;2.38;;;6.60;77.20;;;;;;5112693;28;20645;-67
2022/02/02 09:01:15;;;;;;;5.00;2.17;;;6.70;77.40;;;;;;5114725;28;20280;-67
2022/02/02 09:06:29;;;;;;;8.43;3.17;;;6.80;77.40;;;;;;5113600;28;20326;-66
2022/02/02 09:09:08;;;;;;;5.75;2.80;;;6.80;77.50;;;;;;5114532;28;20699;-66
2022/02/02 09:20:17;;;;;;;7.22;3.25;;;7.00;76.80;;;;;;5114414;28;20282;-67
2022/02/02 09:25:37;;;;;;;10.82;4.68;;;7.00;76.80;;;;;;5112183;28;20198;-66
2022/02/02 09:33:52;;;;;;;4.55;1.65;;;7.20;75.90;;;;;;5113016;28;20200;-66
2022/02/02 09:36:22;;;;;;;8.27;2.35;;;7.20;75.80;;;;;;5113081;28;20522;-69
2022/02/02 09:38:53;;;;;;;8.60;2.05;;;7.20;75.60;;;;;;5114246;28;20227;-68
2022/02/02 09:41:38;;;;;;;9.75;2.50;;;7.30;75.70;;;;;;5112503;28;20679;-66
2022/02/02 09:44:08;;;;;;;9.90;2.60;;;7.30;75.90;;;;;;5113762;28;20236;-69
2022/02/02 09:46:45;;;;;;;12.23;3.40;;;7.30;75.40;;;;;;5113086;28;20245;-69
2022/02/02 09:49:18;;;;;;;12.20;7.63;;;7.40;75.60;;;;;;5113872;28;20229;-69
2022/02/02 09:51:51;;;;;;;12.10;6.18;;;7.40;75.30;;;;;;5113886;28;20192;-69
2022/02/02 09:54:24;;;;;;;17.50;3.63;;;7.40;74.80;;;;;;5112109;28;20204;-69
2022/02/02 10:02:59;;;;;;;9.32;3.00;;;7.50;75.10;;;;;;5086088;28;20219;-66
2022/02/02 10:05:32;;;;;;;5.35;2.80;;;7.50;75.00;;;;;;5111726;28;20206;-68
2022/02/02 10:08:35;;;;;;;10.48;4.07;;;7.40;75.00;;;;;;5112525;28;20204;-68
2022/02/02 10:11:34;;;;;;;10.00;5.53;;;7.50;74.90;;;;;;5112541;28;20196;-69
2022/02/02 10:14:14;;;;;;;14.93;5.43;;;7.40;74.90;;;;;;5111753;28;20696;-68
2022/02/02 10:16:44;;;;;;;13.75;6.50;;;7.40;75.00;;;;;;5112926;28;20196;-68
2022/02/02 10:19:16;;;;;;;9.07;2.05;;;7.30;75.50;;;;;;5112840;28;20203;-68
2022/02/02 10:21:43;;;;;;;5.38;2.33;;;7.40;76.00;;;;;;5113012;28;20567;-70
2022/02/02 10:24:11;;;;;;;6.30;3.03;;;7.30;76.60;;;;;;5112438;28;20216;-69
2022/02/02 10:26:46;;;;;;;5.40;2.63;;;7.40;77.70;;;;;;5112332;28;20201;-68
2022/02/02 10:29:16;;;;;;;6.53;4.22;;;7.30;78.00;;;;;;5109967;28;20196;-68
2022/02/02 10:31:46;;;;;;;2.88;2.20;;;7.30;78.30;;;;;;5109604;28;20238;-68
2022/02/02 10:34:16;;;;;;;12.32;2.47;;;7.30;78.60;;;;;;5113084;28;20188;-68
2022/02/02 10:36:43;;;;;;;8.68;1.92;;;7.30;78.60;;;;;;5111999;28;20274;-68
2022/02/02 10:39:14;;;;;;;4.97;3.78;;;7.40;78.80;;;;;;5112202;28;20287;-68
2022/02/02 10:41:47;;;;;;;5.20;2.85;;;7.50;78.80;;;;;;5112673;28;20955;-68
2022/02/02 10:44:23;;;;;;;6.78;3.70;;;7.50;78.70;;;;;;5109107;28;20336;-68
2022/02/02 10:46:57;;;;;;;4.53;2.50;;;7.50;79.10;;;;;;5112394;28;20188;-69
2022/02/02 10:49:32;;;;;;;7.13;2.15;;;7.60;79.50;;;;;;5109755;28;20240;-68
2022/02/02 10:52:05;;;;;;;9.40;3.67;;;7.60;78.70;;;;;;5112575;28;20248;-68
2022/02/02 10:54:39;;;;;;;7.30;3.40;;;7.80;76.90;;;;;;5111545;28;20648;-68
2022/02/02 10:57:13;;;;;;;10.10;2.58;;;7.80;76.80;;;;;;5112124;28;20551;-71
2022/02/02 10:59:59;;;;;;;5.15;3.13;;;7.90;76.70;;;;;;5112446;28;20650;-68
2022/02/02 11:07:59;;;;;;;9.20;3.28;;;8.40;75.70;;;;;;5112360;28;20237;-68
2022/02/02 11:10:28;;;;;;;9.75;3.97;;;8.40;75.10;;;;;;5111796;28;20241;-68
2022/02/02 11:12:58;;;;;;;6.05;2.80;;;8.40;74.50;;;;;;5111874;28;20200;-66
2022/02/02 11:15:45;;;;;;;6.13;2.33;;;8.30;74.40;;;;;;5109415;28;20216;-67
2022/02/02 11:18:18;;;;;;;8.57;3.53;;;8.50;75.90;;;;;;5112049;28;20635;-68
2022/02/02 11:20:46;;;;;;;7.88;2.47;;;8.60;75.60;;;;;;5111881;28;20188;-67
2022/02/02 11:23:13;;;;;;;4.20;1.90;;;8.70;75.10;;;;;;5111324;28;20266;-69
2022/02/02 11:25:43;;;;;;;5.45;2.35;;;8.80;73.30;;;;;;5111305;28;20180;-69
2022/02/02 11:28:32;;;;;;;8.20;2.50;;;8.80;72.90;;;;;;5112123;28;20211;-69
2022/02/02 11:31:10;;;;;;;5.63;2.38;;;8.70;73.00;;;;;;5109708;28;20227;-68
2022/02/02 11:33:46;;;;;;;5.68;1.75;;;8.70;73.20;;;;;;5111977;28;20256;-68
2022/02/02 11:36:32;;;;;;;8.82;2.28;;;8.60;73.30;;;;;;5111010;28;20210;-69
2022/02/02 11:39:02;;;;;;;8.05;2.78;;;8.40;73.60;;;;;;5110139;28;20268;-68
2022/02/02 11:44:20;;;;;;;7.13;1.70;;;8.10;76.20;;;;;;5107994;28;20673;-68
2022/02/02 11:46:54;;;;;;;7.07;2.30;;;8.20;77.40;;;;;;5110747;28;20708;-69
2022/02/02 11:49:34;;;;;;;8.85;2.45;;;8.20;76.60;;;;;;5108936;28;20241;-69
2022/02/02 11:52:03;;;;;;;7.20;2.65;;;8.40;76.40;;;;;;5110163;28;20192;-68
2022/02/02 11:54:49;;;;;;;9.48;2.08;;;8.40;75.00;;;;;;5112030;28;20192;-68
2022/02/02 11:57:24;;;;;;;4.88;1.60;;;8.40;73.80;;;;;;5111675;28;20294;-67
2022/02/02 12:00:00;;;;;;;7.20;2.50;;;8.30;73.60;;;;;;5112021;28;20206;-66
2022/02/02 12:05:23;;;;;;;13.73;2.42;;;8.30;73.90;;;;;;5108736;28;20289;-69
2022/02/02 12:07:56;;;;;;;6.80;3.05;;;8.30;74.20;;;;;;5111617;28;20192;-68
2022/02/02 12:10:51;;;;;;;6.15;2.17;;;8.40;74.40;;;;;;5109405;28;20196;-68
2022/02/02 12:28:08;;;;;;;12.82;3.45;;;8.70;72.50;;;;;;5110656;28;20211;-68
2022/02/02 12:45:15;;;;;;;9.52;2.83;;;11.10;62.60;;;;;;5110422;28;20211;-67
2022/02/02 12:56:25;;;;;;;5.78;2.33;;;9.90;64.90;;;;;;5113920;28;20199;-66
2022/02/02 12:59:35;;;;;;;6.63;2.28;;;9.80;67.00;;;;;;5112008;28;20279;-66
2022/02/02 13:02:11;;;;;;;9.70;2.38;;;9.90;67.30;;;;;;5112678;28;20193;-66
2022/02/02 13:04:40;;;;;;;12.02;3.63;;;9.70;66.20;;;;;;5113035;28;20257;-67
2022/02/02 13:07:13;;;;;;;21.92;15.07;;;9.60;67.30;;;;;;5111786;28;20192;-67
2022/02/02 13:09:43;;;;;;;15.55;3.97;;;9.60;69.00;;;;;;5111039;28;20211;-66
2022/02/02 13:12:25;;;;;;;5.53;2.28;;;9.50;69.60;;;;;;5095228;28;20193;-68
2022/02/02 13:17:47;;;;;;;6.93;3.63;;;9.30;69.80;;;;;;5106146;28;20184;-66
2022/02/02 13:20:17;;;;;;;16.15;5.05;;;9.10;70.10;;;;;;5115179;28;20698;-67
2022/02/02 13:22:50;;;;;;;9.85;3.10;;;8.90;71.10;;;;;;5115496;28;20192;-66
2022/02/02 13:25:30;;;;;;;4.88;2.28;;;8.80;71.70;;;;;;5114464;28;20219;-66
2022/02/02 13:27:59;;;;;;;5.63;1.88;;;8.50;73.80;;;;;;5114909;28;20276;-66
2022/02/02 13:30:41;;;;;;;12.65;4.82;;;8.30;72.80;;;;;;5114555;28;20192;-66
2022/02/02 13:33:25;;;;;;;8.27;2.50;;;8.10;73.30;;;;;;5115163;28;20588;-68
2022/02/02 13:36:19;;;;;;;7.78;2.78;;;8.00;73.60;;;;;;5114854;28;20179;-66
2022/02/02 13:47:54;;;;;;;2.95;1.70;;;8.10;74.10;;;;;;5068729;28;20224;-68
2022/02/02 13:50:57;;;;;;;6.35;1.35;;;8.10;74.40;;;;;;5094707;28;20193;-69
2022/02/02 13:53:59;;;;;;;5.80;2.10;;;8.10;74.50;;;;;;5114995;28;20257;-68
2022/02/02 13:59:44;;;;;;;8.15;2.83;;;8.20;74.80;;;;;;5112108;28;20250;-68
2022/02/02 14:02:20;;;;;;;9.95;1.20;;;8.20;75.20;;;;;;5112547;28;20616;-68
2022/02/02 14:05:15;;;;;;;4.43;2.42;;;8.30;75.40;;;;;;5114505;28;20216;-68
2022/02/02 14:07:51;;;;;;;3.50;1.65;;;8.50;75.20;;;;;;5095858;28;20192;-68
2022/02/02 14:10:35;;;;;;;7.95;3.22;;;8.60;74.40;;;;;;5114576;28;20249;-68
2022/02/02 14:32:14;;;;;;;7.95;2.63;;;9.20;72.30;;;;;;5104500;28;20658;-66
2022/02/02 14:34:41;;;;;;;7.38;2.45;;;9.20;71.80;;;;;;5113407;28;20180;-67
2022/02/02 14:37:14;;;;;;;6.50;3.65;;;9.20;71.20;;;;;;5114029;28;20211;-66
2022/02/02 14:39:51;;;;;;;10.50;3.30;;;9.10;71.10;;;;;;5113461;28;20195;-67
2022/02/02 14:42:23;;;;;;;12.50;3.10;;;9.00;70.90;;;;;;5113893;28;20226;-66
2022/02/02 14:44:51;;;;;;;10.48;3.42;;;8.90;71.00;;;;;;5113090;28;20299;-67
2022/02/02 14:47:25;;;;;;;7.15;2.78;;;8.70;71.60;;;;;;5113781;28;20188;-66
2022/02/02 14:49:57;;;;;;;4.45;2.50;;;8.60;71.80;;;;;;5113369;28;20712;-66
2022/02/02 14:52:33;;;;;;;10.90;4.45;;;8.50;72.60;;;;;;5113648;28;20189;-66
2022/02/02 14:55:49;;;;;;;9.23;3.47;;;8.40;72.70;;;;;;5113215;28;20300;-66
2022/02/02 15:24:32;;;;;;;5.63;2.40;;;7.60;76.80;;;;;;5123315;28;20555;-66
2022/02/02 15:27:27;;;;;;;8.05;3.83;;;7.60;77.40;;;;;;5109999;28;20234;-66
2022/02/02 15:30:10;;;;;;;12.85;3.80;;;7.60;78.10;;;;;;5124101;28;20518;-66
2022/02/02 15:32:40;;;;;;;10.43;3.17;;;7.50;78.70;;;;;;5115201;27;20230;-66
2022/02/02 15:35:09;;;;;;;11.35;3.17;;;7.50;79.10;;;;;;5110156;28;20271;-66
2022/02/02 15:37:42;;;;;;;8.40;3.17;;;7.50;79.40;;;;;;5123835;28;20602;-66
2022/02/02 15:40:13;;;;;;;10.85;3.85;;;7.40;79.70;;;;;;5130392;27;20198;-66
2022/02/02 15:42:54;;;;;;;18.00;4.43;;;7.40;80.10;;;;;;5116835;27;20226;-66
2022/02/02 15:59:05;;;;;;;14.23;3.38;;;7.10;82.30;;;;;;5106399;28;20650;-66
2022/02/02 16:02:06;;;;;;;9.60;2.58;;;7.10;82.80;;;;;;5099129;28;20208;-68
2022/02/02 16:04:35;;;;;;;10.55;3.90;;;7.00;83.10;;;;;;5094579;28;20275;-69
2022/02/02 16:07:05;;;;;;;7.28;2.25;;;6.90;84.10;;;;;;5087659;28;20197;-66
2022/02/02 16:09:42;;;;;;;5.82;2.70;;;6.90;85.00;;;;;;5087995;28;20229;-67
2022/02/02 16:12:15;;;;;;;4.40;2.55;;;6.80;85.90;;;;;;5102946;28;20639;-68
2022/02/02 16:14:46;;;;;;;9.82;3.28;;;6.70;85.90;;;;;;5093879;28;20186;-66
2022/02/02 16:17:37;;;;;;;4.78;2.60;;;6.70;85.60;;;;;;5091286;28;20707;-67
2022/02/02 16:36:37;;;;;;;4.65;3.10;;;6.70;84.80;;;;;;5100608;28;20192;-66
2022/02/02 16:39:09;;;;;;;10.27;3.47;;;6.70;84.80;;;;;;5105689;28;20211;-66
2022/02/02 16:44:21;;;;;;;8.93;2.92;;;6.70;85.10;;;;;;5097987;28;20202;-66
2022/02/02 16:46:52;;;;;;;6.30;3.47;;;6.70;85.40;;;;;;5103390;28;20204;-66
2022/02/02 16:49:19;;;;;;;10.85;3.40;;;6.60;85.40;;;;;;5100601;28;20220;-67
2022/02/02 16:51:47;;;;;;;7.82;3.35;;;6.60;85.10;;;;;;5098609;28;20193;-66
2022/02/02 16:54:21;;;;;;;9.57;3.45;;;6.60;84.70;;;;;;5102829;28;20292;-67
2022/02/02 16:57:19;;;;;;;7.07;2.45;;;6.60;84.70;;;;;;5099790;28;20215;-67
2022/02/02 17:25:17;;;;;;;10.60;2.90;;;6.10;84.80;;;;;;5098861;28;20622;-66
2022/02/02 17:30:25;;;;;;;7.70;2.70;;;6.00;84.90;;;;;;5099255;28;20204;-67
2022/02/02 17:32:57;;;;;;;7.22;3.10;;;6.00;85.10;;;;;;5097137;28;20537;-71
2022/02/02 17:35:36;;;;;;;7.47;3.97;;;5.90;85.20;;;;;;5099025;28;20218;-67
2022/02/02 17:38:14;;;;;;;8.77;2.97;;;5.90;85.50;;;;;;5100356;28;20212;-66
2022/02/02 18:19:22;;;;;;;15.80;8.23;;;5.60;89.20;;;;;;5092009;28;20225;-66
2022/02/02 18:21:51;;;;;;;11.02;6.57;;;5.50;89.50;;;;;;5089534;28;20204;-66
2022/02/02 18:24:24;;;;;;;9.65;6.15;;;5.50;89.80;;;;;;5095506;28;20270;-68
2022/02/02 18:26:57;;;;;;;11.15;6.65;;;5.50;89.90;;;;;;5087038;28;20529;-66
2022/02/02 18:29:32;;;;;;;7.32;5.50;;;5.50;89.90;;;;;;5089578;28;20275;-66
2022/02/02 18:32:11;;;;;;;9.50;6.20;;;5.50;90.00;;;;;;5099338;28;20332;-66
2022/02/02 18:34:45;;;;;;;11.57;5.20;;;5.40;90.10;;;;;;5091385;28;20196;-68
2022/02/02 18:43:20;;;;;;;4.65;2.90;;;5.40;90.80;;;;;;5071617;28;20196;-70
2022/02/02 18:48:38;;;;;;;8.50;4.38;;;5.50;90.90;;;;;;5096131;28;20358;-70
2022/02/02 18:51:40;;;;;;;11.07;5.82;;;5.40;91.10;;;;;;5100084;28;20202;-69
2022/02/02 18:54:24;;;;;;;15.25;6.97;;;5.50;91.40;;;;;;5092057;28;20189;-66
2022/02/02 18:57:21;;;;;;;12.98;6.68;;;5.50;91.30;;;;;;5097444;28;20219;-66
2022/02/02 19:00:11;;;;;;;6.07;3.00;;;5.50;91.40;;;;;;5087055;28;20205;-74
2022/02/02 19:05:44;;;;;;;4.85;3.00;;;5.70;91.50;;;;;;5051834;28;20518;-69
2022/02/02 19:55:28;;;;;;;6.53;2.50;;;5.80;91.70;;;;;;5052697;28;20185;-66
2022/02/02 20:03:51;;;;;;;6.65;2.83;;;5.90;92.00;;;;;;5078191;28;20204;-66
2022/02/02 20:06:24;;;;;;;4.10;3.05;;;6.00;91.80;;;;;;5087597;28;20216;-67
2022/02/02 20:09:21;;;;;;;5.03;2.83;;;6.00;91.80;;;;;;5090283;28;20224;-66
2022/02/02 20:11:46;;;;;;;7.97;3.28;;;6.00;91.70;;;;;;5074591;28;20198;-66
2022/02/02 20:14:14;;;;;;;5.93;2.85;;;6.00;91.80;;;;;;5083281;28;20194;-66
2022/02/02 20:16:42;;;;;;;4.80;2.83;;;6.10;91.80;;;;;;5074629;28;20640;-66
2022/02/02 20:19:12;;;;;;;4.07;2.20;;;6.10;91.80;;;;;;5076090;28;20193;-66
2022/02/02 20:21:47;;;;;;;4.78;2.70;;;6.10;91.60;;;;;;5082380;28;20187;-66
2022/02/02 20:24:15;;;;;;;13.48;7.18;;;6.20;91.60;;;;;;5074186;28;20667;-67
2022/02/02 20:26:47;;;;;;;7.80;5.35;;;6.20;91.40;;;;;;5082683;28;20669;-67
2022/02/02 20:29:15;;;;;;;6.20;3.67;;;6.20;91.30;;;;;;5074666;28;20770;-66
2022/02/02 20:31:43;;;;;;;4.68;3.50;;;6.20;91.40;;;;;;5082117;28;20268;-66
2022/02/02 20:34:12;;;;;;;5.18;2.90;;;6.30;91.30;;;;;;5074380;28;20620;-66
2022/02/02 20:36:40;;;;;;;4.32;3.03;;;6.30;91.20;;;;;;5081856;28;20521;-66
2022/02/02 20:39:17;;;;;;;3.35;2.53;;;6.30;91.20;;;;;;5073819;28;20194;-66
2022/02/02 20:41:45;;;;;;;3.40;2.45;;;6.30;91.30;;;;;;5079278;28;20188;-66
2022/02/02 20:44:21;;;;;;;5.55;2.85;;;6.30;91.10;;;;;;5074199;28;20664;-66
2022/02/02 20:47:17;;;;;;;4.78;2.95;;;6.40;91.20;;;;;;5077988;28;20684;-66
2022/02/02 21:01:26;;;;;;;4.53;2.50;;;6.40;91.10;;;;;;5073548;28;20709;-67
2022/02/02 21:04:03;;;;;;;4.65;3.50;;;6.40;90.90;;;;;;5087870;28;20193;-66
2022/02/02 21:06:42;;;;;;;6.43;2.60;;;6.40;91.00;;;;;;5081814;28;20185;-67
2022/02/02 21:09:27;;;;;;;6.80;2.45;;;6.50;90.80;;;;;;5073757;28;20237;-66
2022/02/02 21:13:40;;;;;;;5.13;2.92;;;6.50;90.60;;;;;;5078899;28;20242;-66
2022/02/02 21:14:47;;;;;;;8.48;3.83;;;6.50;90.60;;;;;;5088721;28;20371;-66
2022/02/02 21:17:20;;;;;;;5.55;2.80;;;6.50;90.40;;;;;;5081277;28;20186;-66
2022/02/02 21:19:54;;;;;;;5.63;3.72;;;6.50;90.30;;;;;;5081488;28;20277;-66